createdAt,value
2022-12-08T00:01:24.657Z,11.82
2022-12-08T00:03:52.859Z,14.85
2022-12-08T00:06:48.920Z,15.40
2022-12-08T00:09:25.112Z,14.60
2022-12-08T00:11:55.588Z,13.02
2022-12-08T00:17:00.155Z,19.42
2022-12-08T00:19:28.896Z,13.63
2022-12-08T00:21:57.349Z,13.77
2022-12-08T00:24:26.745Z,13.45
2022-12-08T00:26:54.481Z,12.55
2022-12-08T00:29:22.163Z,13.60
2022-12-08T00:31:51.560Z,10.60
2022-12-08T00:34:19.238Z,11.50
2022-12-08T00:36:47.182Z,13.05
2022-12-08T00:39:16.212Z,12.10
2022-12-08T00:42:01.609Z,14.40
2022-12-08T00:44:29.339Z,11.05
2022-12-08T00:46:58.430Z,12.88
2022-12-08T00:49:26.057Z,13.07
2022-12-08T00:51:53.918Z,12.70
2022-12-08T00:54:22.886Z,12.82
2022-12-08T00:56:50.900Z,11.95
2022-12-08T00:59:18.887Z,11.88
2022-12-08T01:01:47.895Z,13.07
2022-12-08T01:04:18.954Z,12.98
2022-12-08T01:06:47.381Z,14.88
2022-12-08T01:09:16.571Z,20.17
2022-12-08T01:11:45.471Z,13.60
2022-12-08T01:14:13.631Z,19.27
2022-12-08T01:16:42.023Z,14.93
2022-12-08T01:19:12.016Z,14.93
2022-12-08T01:21:41.788Z,15.30
2022-12-08T01:24:12.063Z,11.93
2022-12-08T01:26:39.739Z,18.45
2022-12-08T01:29:07.992Z,15.82
2022-12-08T01:31:35.912Z,13.27
2022-12-08T01:34:03.580Z,17.42
2022-12-08T01:36:33.418Z,16.10
2022-12-08T01:39:03.087Z,14.85
2022-12-08T01:41:34.500Z,19.38
2022-12-08T01:44:04.395Z,15.77
2022-12-08T01:46:33.607Z,13.20
2022-12-08T01:49:04.854Z,13.10
2022-12-08T01:51:35.994Z,11.85
2022-12-08T01:54:06.823Z,14.20
2022-12-08T01:56:43.271Z,16.00
2022-12-08T01:59:11.876Z,14.77
2022-12-08T02:01:39.839Z,12.98
2022-12-08T02:04:07.658Z,15.65
2022-12-08T02:06:39.577Z,12.75
2022-12-08T02:09:09.470Z,15.70
2022-12-08T02:11:37.154Z,9.65
2022-12-08T02:14:07.240Z,12.02
2022-12-08T02:16:42.126Z,11.40
2022-12-08T02:19:33.851Z,10.70
2022-12-08T02:22:07.906Z,12.40
2022-12-08T02:24:41.953Z,14.27
2022-12-08T02:27:29.427Z,11.30
2022-12-08T02:30:13.275Z,13.70
2022-12-08T02:33:07.063Z,13.88
2022-12-08T02:35:44.295Z,11.45
2022-12-08T02:38:20.604Z,11.20
2022-12-08T02:40:54.800Z,14.93
2022-12-08T02:43:29.621Z,14.93
2022-12-08T02:46:02.454Z,12.75
2022-12-08T02:48:30.598Z,13.57
2022-12-08T02:50:59.615Z,13.50
2022-12-08T02:53:29.259Z,13.82
2022-12-08T02:56:04.367Z,13.77
2022-12-08T02:58:45.215Z,13.02
2022-12-08T03:01:33.260Z,12.18
2022-12-08T03:04:05.407Z,12.68
2022-12-08T03:06:42.257Z,13.75
2022-12-08T03:09:15.259Z,11.32
2022-12-08T03:11:48.872Z,10.52
2022-12-08T03:14:19.040Z,10.93
2022-12-08T03:16:49.768Z,9.45
2022-12-08T03:19:20.383Z,11.48
2022-12-08T03:21:53.373Z,11.23
2022-12-08T03:24:24.064Z,11.88
2022-12-08T03:26:56.274Z,10.63
2022-12-08T03:29:24.457Z,8.95
2022-12-08T03:31:56.343Z,10.48
2022-12-08T03:34:26.325Z,10.77
2022-12-08T03:36:55.850Z,12.05
2022-12-08T03:39:24.314Z,10.47
2022-12-08T03:41:51.935Z,12.07
2022-12-08T03:44:19.640Z,11.48
2022-12-08T03:46:47.260Z,11.73
2022-12-08T03:49:14.947Z,11.57
2022-12-08T03:51:42.600Z,10.23
2022-12-08T03:54:11.803Z,10.43
2022-12-08T03:56:40.630Z,11.07
2022-12-08T03:59:08.850Z,9.13
2022-12-08T04:01:36.543Z,9.63
2022-12-08T04:04:04.444Z,11.55
2022-12-08T04:06:32.062Z,10.20
2022-12-08T04:08:59.903Z,11.55
2022-12-08T04:11:28.843Z,9.57
2022-12-08T04:13:56.490Z,11.70
2022-12-08T04:16:26.534Z,11.57
2022-12-08T04:18:55.324Z,12.30
2022-12-08T04:21:23.196Z,13.93
2022-12-08T04:23:52.920Z,15.45
2022-12-08T04:26:23.849Z,15.02
2022-12-08T04:28:52.838Z,15.18
2022-12-08T04:31:20.535Z,17.30
2022-12-08T04:33:48.656Z,17.48
2022-12-08T04:36:16.351Z,14.88
2022-12-08T04:38:44.043Z,14.93
2022-12-08T04:41:11.667Z,15.10
2022-12-08T04:43:39.334Z,18.55
2022-12-08T04:46:09.943Z,15.88
2022-12-08T04:48:38.659Z,18.20
2022-12-08T04:51:06.877Z,15.65
2022-12-08T04:53:35.020Z,14.98
2022-12-08T04:56:02.665Z,16.38
2022-12-08T04:58:30.345Z,18.23
2022-12-08T05:00:58.005Z,16.67
2022-12-08T05:03:28.828Z,15.70
2022-12-08T05:05:56.798Z,15.10
2022-12-08T05:08:24.637Z,16.17
2022-12-08T05:10:52.341Z,17.88
2022-12-08T05:13:19.983Z,19.15
2022-12-08T05:15:47.603Z,20.38
2022-12-08T05:18:15.639Z,18.60
2022-12-08T05:20:44.620Z,16.80
2022-12-08T05:23:12.278Z,18.48
2022-12-08T05:25:39.895Z,18.30
2022-12-08T05:28:39.450Z,19.73
2022-12-08T05:30:55.242Z,21.70
2022-12-08T05:33:22.864Z,19.45
2022-12-08T05:35:51.897Z,23.25
2022-12-08T05:38:20.352Z,19.80
2022-12-08T05:40:47.981Z,22.60
2022-12-08T05:43:15.871Z,20.75
2022-12-08T05:45:43.714Z,23.25
2022-12-08T05:48:11.441Z,22.10
2022-12-08T05:50:39.131Z,24.77
2022-12-08T05:53:08.083Z,25.33
2022-12-08T05:55:35.717Z,25.27
2022-12-08T05:58:07.801Z,24.00
2022-12-08T06:00:35.802Z,22.92
2022-12-08T06:03:03.550Z,22.10
2022-12-08T06:05:33.353Z,21.58
2022-12-08T06:08:01.033Z,23.33
2022-12-08T06:10:30.185Z,23.35
2022-12-08T06:12:58.011Z,24.70
2022-12-08T06:15:25.660Z,23.95
2022-12-08T06:17:53.381Z,27.75
2022-12-08T06:20:21.067Z,30.52
2022-12-08T06:22:48.737Z,28.48
2022-12-08T06:25:16.503Z,24.75
2022-12-08T06:27:45.471Z,25.25
2022-12-08T06:30:13.618Z,29.55
2022-12-08T06:32:41.335Z,25.95
2022-12-08T06:35:09.925Z,25.77
2022-12-08T06:37:38.074Z,23.67
2022-12-08T06:40:07.132Z,30.83
2022-12-08T06:42:47.609Z,25.02
2022-12-08T06:45:18.487Z,27.63
2022-12-08T06:47:46.178Z,27.83
2022-12-08T06:50:14.726Z,29.17
2022-12-08T06:52:51.730Z,26.98
2022-12-08T06:55:57.410Z,27.95
2022-12-08T06:58:14.726Z,25.45
2022-12-08T07:00:44.129Z,26.77
2022-12-08T07:03:12.597Z,29.17
2022-12-08T07:05:40.585Z,27.83
2022-12-08T07:08:09.924Z,27.83
2022-12-08T07:10:38.144Z,29.60
2022-12-08T07:13:05.946Z,28.23
2022-12-08T07:15:33.737Z,27.67
2022-12-08T07:18:02.693Z,26.75
2022-12-08T07:20:30.356Z,26.63
2022-12-08T07:22:58.059Z,29.10
2022-12-08T07:25:25.711Z,28.55
2022-12-08T07:27:53.451Z,23.42
2022-12-08T07:30:21.239Z,29.75
2022-12-08T07:32:48.962Z,26.73
2022-12-08T07:35:18.131Z,26.42
2022-12-08T07:37:45.778Z,24.90
2022-12-08T07:40:14.709Z,27.42
2022-12-08T07:42:42.653Z,25.17
2022-12-08T07:45:10.993Z,26.67
2022-12-08T07:47:38.625Z,25.88
2022-12-08T07:50:07.913Z,29.80
2022-12-08T07:52:36.991Z,27.83
2022-12-08T07:55:05.043Z,25.25
2022-12-08T07:57:32.730Z,29.27
2022-12-08T08:00:00.378Z,26.00
2022-12-08T08:02:28.165Z,26.70
2022-12-08T08:04:56.007Z,22.60
2022-12-08T08:07:23.679Z,28.63
2022-12-08T08:09:52.706Z,24.35
2022-12-08T08:12:31.357Z,27.35
2022-12-08T08:14:59.998Z,27.17
2022-12-08T08:17:27.761Z,27.20
2022-12-08T08:19:55.526Z,25.90
2022-12-08T08:22:23.196Z,31.75
2022-12-08T08:24:52.142Z,23.85
2022-12-08T08:27:19.907Z,26.80
2022-12-08T08:29:47.839Z,23.90
2022-12-08T08:32:15.458Z,23.35
2022-12-08T08:34:43.078Z,25.20
2022-12-08T08:37:10.812Z,25.67
2022-12-08T08:39:38.506Z,22.10
2022-12-08T08:42:07.597Z,28.23
2022-12-08T08:44:35.238Z,26.63
2022-12-08T08:47:02.863Z,24.45
2022-12-08T08:49:30.698Z,22.63
2022-12-08T08:51:58.372Z,22.38
2022-12-08T08:54:26.087Z,33.15
2022-12-08T08:56:53.686Z,25.55
2022-12-08T08:59:22.912Z,25.25
2022-12-08T09:01:50.617Z,24.95
2022-12-08T09:04:18.680Z,28.60
2022-12-08T09:06:46.396Z,24.10
2022-12-08T09:09:14.005Z,22.90
2022-12-08T09:11:41.685Z,31.00
2022-12-08T09:14:11.812Z,24.25
2022-12-08T09:16:42.499Z,24.13
2022-12-08T09:19:10.753Z,23.42
2022-12-08T09:21:38.438Z,26.88
2022-12-08T09:24:06.482Z,23.17
2022-12-08T09:26:34.072Z,27.55
2022-12-08T09:29:01.784Z,22.63
2022-12-08T09:31:29.472Z,27.98
2022-12-08T09:33:59.255Z,31.85
2022-12-08T09:36:27.052Z,25.63
2022-12-08T09:38:54.811Z,24.65
2022-12-08T09:41:38.922Z,26.50
2022-12-08T09:44:44.110Z,29.45
2022-12-08T09:47:19.909Z,24.15
2022-12-08T09:49:54.058Z,28.25
2022-12-08T09:52:26.235Z,26.45
2022-12-08T09:54:54.008Z,30.65
2022-12-08T09:57:24.696Z,27.75
2022-12-08T09:59:56.403Z,39.53
2022-12-08T10:02:25.185Z,24.35
2022-12-08T10:04:56.168Z,23.42
2022-12-08T10:07:31.932Z,28.50
2022-12-08T10:10:04.663Z,29.50
2022-12-08T10:12:40.322Z,38.58
2022-12-08T10:15:29.821Z,23.73
2022-12-08T10:18:01.667Z,23.45
2022-12-08T10:20:37.747Z,22.60
2022-12-08T10:23:10.283Z,23.42
2022-12-08T10:25:42.412Z,23.95
2022-12-08T10:28:10.679Z,23.30
2022-12-08T10:30:39.088Z,24.70
2022-12-08T10:33:10.909Z,25.25
2022-12-08T10:35:47.350Z,24.98
2022-12-08T10:38:21.512Z,21.08
2022-12-08T10:40:50.752Z,26.40
2022-12-08T10:43:21.727Z,33.10
2022-12-08T10:45:49.535Z,23.60
2022-12-08T10:48:20.447Z,27.35
2022-12-08T10:50:55.417Z,24.50
2022-12-08T10:53:25.760Z,26.13
2022-12-08T10:56:06.325Z,25.17
2022-12-08T10:58:35.763Z,23.45
2022-12-08T11:01:07.197Z,23.98
2022-12-08T11:03:38.813Z,25.15
2022-12-08T11:06:16.532Z,21.73
2022-12-08T11:08:49.611Z,26.13
2022-12-08T11:11:17.943Z,25.65
2022-12-08T11:13:45.695Z,24.20
2022-12-08T11:16:15.988Z,24.98
2022-12-08T11:18:46.934Z,23.00
2022-12-08T11:21:17.607Z,21.10
2022-12-08T11:23:48.877Z,17.98
2022-12-08T11:26:30.585Z,22.10
2022-12-08T11:28:58.599Z,21.27
2022-12-08T11:31:31.266Z,18.92
2022-12-08T11:33:59.164Z,22.00
2022-12-08T11:36:31.306Z,22.00
2022-12-08T11:39:01.781Z,24.70
2022-12-08T11:44:06.798Z,17.90
2022-12-08T11:46:40.305Z,25.00
2022-12-08T11:49:12.728Z,21.80
2022-12-08T11:51:49.194Z,25.63
2022-12-08T11:54:23.543Z,26.85
2022-12-08T11:56:54.189Z,23.55
2022-12-08T11:59:29.690Z,26.60
2022-12-08T12:01:59.144Z,25.23
2022-12-08T12:04:36.772Z,24.85
2022-12-08T12:07:37.320Z,20.67
2022-12-08T12:12:54.227Z,21.48
2022-12-08T12:15:52.224Z,21.85
2022-12-08T12:18:28.117Z,20.92
2022-12-08T12:21:00.416Z,18.85
2022-12-08T12:23:37.177Z,16.27
2022-12-08T12:26:08.713Z,19.85
2022-12-08T12:28:42.792Z,25.05
2022-12-08T12:31:13.234Z,22.17
2022-12-08T12:36:10.857Z,21.27
2022-12-08T12:39:04.297Z,15.90
2022-12-08T12:41:43.891Z,16.52
2022-12-08T12:44:37.615Z,20.88
2022-12-08T12:47:08.477Z,17.15
2022-12-08T12:50:07.807Z,19.05
2022-12-08T12:52:48.921Z,18.48
2022-12-08T12:55:55.104Z,18.02
2022-12-08T12:58:50.774Z,18.42
2022-12-08T13:01:38.577Z,17.45
2022-12-08T13:04:09.073Z,16.23
2022-12-08T13:09:07.860Z,20.58
2022-12-08T13:11:50.589Z,15.90
2022-12-08T13:14:29.405Z,21.85
2022-12-08T13:17:00.093Z,17.77
2022-12-08T13:19:31.955Z,19.50
2022-12-08T13:22:00.337Z,18.38
2022-12-08T13:24:35.444Z,18.08
2022-12-08T13:27:35.484Z,19.77
2022-12-08T13:30:39.963Z,15.88
2022-12-08T13:33:18.874Z,18.73
2022-12-08T13:35:54.530Z,19.50
2022-12-08T13:38:27.518Z,17.58
2022-12-08T13:40:57.016Z,15.60
2022-12-08T13:43:45.053Z,16.15
2022-12-08T13:47:09.322Z,13.63
2022-12-08T13:50:49.603Z,17.08
2022-12-08T13:55:49.842Z,22.05
2022-12-08T13:57:38.230Z,19.65
2022-12-08T14:00:17.056Z,19.92
2022-12-08T14:02:48.438Z,23.40
2022-12-08T14:05:23.477Z,19.60
2022-12-08T14:07:58.297Z,21.65
2022-12-08T14:10:28.788Z,22.17
2022-12-08T14:15:30.234Z,22.67
2022-12-08T14:18:02.333Z,24.00
2022-12-08T14:20:33.808Z,20.52
2022-12-08T14:23:10.849Z,24.23
2022-12-08T14:25:39.284Z,20.27
2022-12-08T14:28:07.402Z,20.65
2022-12-08T14:30:37.899Z,19.63
2022-12-08T14:35:36.870Z,14.70
2022-12-08T14:38:07.293Z,14.52
2022-12-08T14:43:16.659Z,16.55
2022-12-08T14:45:53.355Z,9.73
2022-12-08T14:48:24.202Z,11.43
2022-12-08T14:51:06.807Z,10.15
2022-12-08T14:53:42.387Z,11.60
2022-12-08T14:56:20.092Z,10.95
2022-12-08T14:58:50.284Z,14.07
2022-12-08T15:01:24.717Z,11.63
2022-12-08T15:03:54.993Z,11.95
2022-12-08T15:06:23.813Z,14.98
2022-12-08T15:08:54.548Z,12.77
2022-12-08T15:11:35.315Z,10.80
2022-12-08T15:14:03.707Z,10.50
2022-12-08T15:16:40.711Z,11.95
2022-12-08T15:19:23.337Z,11.15
2022-12-08T15:21:52.468Z,11.23
2022-12-08T15:24:21.875Z,13.43
2022-12-08T15:26:52.155Z,12.20
2022-12-08T15:29:22.815Z,12.75
2022-12-08T15:31:54.398Z,13.57
2022-12-08T15:34:22.695Z,13.70
2022-12-08T15:36:53.158Z,11.57
2022-12-08T15:41:53.730Z,11.07
2022-12-08T15:44:21.576Z,15.68
2022-12-08T15:46:50.057Z,12.70
2022-12-08T15:49:21.647Z,11.77
2022-12-08T15:51:50.293Z,13.25
2022-12-08T15:54:18.170Z,12.32
2022-12-08T15:57:17.201Z,12.90
2022-12-08T15:59:36.530Z,12.02
2022-12-08T16:02:04.919Z,12.68
2022-12-08T16:07:26.175Z,15.95
2022-12-08T16:09:55.355Z,13.40
2022-12-08T16:13:54.687Z,12.20
2022-12-08T16:15:55.214Z,12.30
2022-12-08T16:18:28.145Z,12.68
2022-12-08T16:21:31.659Z,12.18
2022-12-08T16:23:46.082Z,15.00
2022-12-08T16:26:35.684Z,12.52
2022-12-08T16:29:04.300Z,13.77
2022-12-08T16:31:32.402Z,12.75
2022-12-08T16:34:00.369Z,15.18
2022-12-08T16:36:29.795Z,12.30
2022-12-08T16:38:57.864Z,14.10
2022-12-08T16:41:43.210Z,15.07
2022-12-08T16:44:11.060Z,12.68
2022-12-08T16:46:39.174Z,13.18
2022-12-08T16:49:10.607Z,12.38
2022-12-08T16:51:39.791Z,13.52
2022-12-08T16:54:07.938Z,15.45
2022-12-08T16:56:36.042Z,12.32
2022-12-08T16:59:04.084Z,12.07
2022-12-08T17:01:32.198Z,13.75
2022-12-08T17:04:30.043Z,11.35
2022-12-08T17:06:52.846Z,15.90
2022-12-08T17:09:20.780Z,12.25
2022-12-08T17:11:48.819Z,12.45
2022-12-08T17:14:16.834Z,11.20
2022-12-08T17:16:46.168Z,12.02
2022-12-08T17:19:15.383Z,14.32
2022-12-08T17:21:44.375Z,10.90
2022-12-08T17:24:17.130Z,11.02
2022-12-08T17:26:48.097Z,11.32
2022-12-08T17:29:16.140Z,11.00
2022-12-08T17:31:43.952Z,11.05
2022-12-08T17:34:12.314Z,12.93
2022-12-08T17:36:40.097Z,11.45
2022-12-08T17:39:11.016Z,12.43
2022-12-08T17:41:44.394Z,11.52
2022-12-08T17:44:14.207Z,12.40
2022-12-08T17:46:46.393Z,10.93
2022-12-08T17:49:20.687Z,12.40
2022-12-08T17:51:49.498Z,11.55
2022-12-08T17:54:18.312Z,11.27
2022-12-08T17:56:47.600Z,12.63
2022-12-08T17:59:15.507Z,13.88
2022-12-08T18:01:43.786Z,13.35
2022-12-08T18:04:13.018Z,12.38
2022-12-08T18:06:41.478Z,13.75
2022-12-08T18:09:09.568Z,13.32
2022-12-08T18:11:37.823Z,15.43
2022-12-08T18:14:10.422Z,13.60
2022-12-08T18:16:39.813Z,14.10
2022-12-08T18:19:08.982Z,13.98
2022-12-08T18:21:37.487Z,14.70
2022-12-08T18:24:06.159Z,13.98
2022-12-08T18:26:34.199Z,14.85
2022-12-08T18:29:02.374Z,12.38
2022-12-08T18:31:31.801Z,17.63
2022-12-08T18:33:59.966Z,16.08
2022-12-08T18:36:27.975Z,14.23
2022-12-08T18:38:56.130Z,12.43
2022-12-08T18:41:25.987Z,13.85
2022-12-08T18:43:55.276Z,16.10
2022-12-08T18:46:23.378Z,14.18
2022-12-08T18:48:53.392Z,12.32
2022-12-08T18:51:23.770Z,14.18
2022-12-08T18:56:23.349Z,13.65
2022-12-08T18:58:51.306Z,15.60
2022-12-08T19:01:19.280Z,14.30
2022-12-08T19:04:12.026Z,14.00
2022-12-08T19:06:39.141Z,16.83
2022-12-08T19:09:07.390Z,16.20
2022-12-08T19:11:35.274Z,15.55
2022-12-08T19:14:03.262Z,16.42
2022-12-08T19:16:31.281Z,15.90
2022-12-08T19:18:59.504Z,19.02
2022-12-08T19:21:27.174Z,16.02
2022-12-08T19:23:58.317Z,16.77
2022-12-08T19:26:26.294Z,15.70
2022-12-08T19:28:53.926Z,17.95
2022-12-08T19:31:21.673Z,18.10
2022-12-08T19:33:49.377Z,15.07
2022-12-08T19:36:19.527Z,14.38
2022-12-08T19:39:04.695Z,18.17
2022-12-08T19:41:51.714Z,11.88
2022-12-08T19:44:39.047Z,12.65
2022-12-08T19:47:06.932Z,20.42
2022-12-08T19:49:34.612Z,15.00
2022-12-08T19:52:02.359Z,12.85
2022-12-08T19:54:30.080Z,13.65
2022-12-08T19:56:59.126Z,15.38
2022-12-08T19:59:27.034Z,12.15
2022-12-08T20:01:55.668Z,14.98
2022-12-08T20:04:23.705Z,12.73
2022-12-08T20:06:52.396Z,11.07
2022-12-08T20:09:20.406Z,10.95
2022-12-08T20:11:48.097Z,11.75
2022-12-08T20:14:17.624Z,12.82
2022-12-08T20:16:45.424Z,10.97
2022-12-08T20:19:13.095Z,11.07
2022-12-08T20:21:40.940Z,10.55
2022-12-08T20:24:09.028Z,11.23
2022-12-08T20:26:36.777Z,10.82
2022-12-08T20:29:04.445Z,14.45
2022-12-08T20:31:34.195Z,11.90
2022-12-08T20:34:02.505Z,12.18
2022-12-08T20:36:31.328Z,11.82
2022-12-08T20:38:59.054Z,12.18
2022-12-08T20:41:26.746Z,11.27
2022-12-08T20:43:55.047Z,12.25
2022-12-08T20:46:22.867Z,11.30
2022-12-08T20:48:52.153Z,9.93
2022-12-08T20:51:20.855Z,11.32
2022-12-08T20:53:48.705Z,12.77
2022-12-08T20:56:17.509Z,12.77
2022-12-08T20:58:45.758Z,12.32
2022-12-08T21:01:15.502Z,14.38
2022-12-08T21:03:44.101Z,11.95
2022-12-08T21:06:14.140Z,13.65
2022-12-08T21:08:42.904Z,12.48
2022-12-08T21:11:11.726Z,12.75
2022-12-08T21:13:40.251Z,14.07
2022-12-08T21:16:09.323Z,14.00
2022-12-08T21:18:39.698Z,16.15
2022-12-08T21:21:09.718Z,13.82
2022-12-08T21:23:39.029Z,14.60
2022-12-08T21:26:16.562Z,15.77
2022-12-08T21:28:44.530Z,14.52
2022-12-08T21:31:14.855Z,14.63
2022-12-08T21:33:42.718Z,14.23
2022-12-08T21:36:14.414Z,13.38
2022-12-08T21:38:44.586Z,14.45
2022-12-08T21:41:15.513Z,13.30
2022-12-08T21:43:43.855Z,18.50
2022-12-08T21:46:16.193Z,13.00
2022-12-08T21:48:43.969Z,14.55
2022-12-08T21:51:11.658Z,14.07
2022-12-08T21:53:39.362Z,12.95
2022-12-08T21:56:10.766Z,13.48
2022-12-08T21:58:39.791Z,15.75
2022-12-08T22:01:07.930Z,13.40
2022-12-08T22:03:36.432Z,15.20
2022-12-08T22:06:07.836Z,16.33
2022-12-08T22:08:35.995Z,14.27
2022-12-08T22:11:04.157Z,15.82
2022-12-08T22:13:35.018Z,12.63
2022-12-08T22:16:06.161Z,16.75
2022-12-08T22:18:35.480Z,14.50
2022-12-08T22:21:03.933Z,14.20
2022-12-08T22:23:31.611Z,14.48
2022-12-08T22:26:00.070Z,16.05
2022-12-08T22:28:29.149Z,14.52
2022-12-08T22:30:58.322Z,14.38
2022-12-08T22:33:26.146Z,16.33
2022-12-08T22:35:57.990Z,16.13
2022-12-08T22:38:26.194Z,15.25
2022-12-08T22:40:54.277Z,14.07
2022-12-08T22:43:23.241Z,15.93
2022-12-08T22:45:51.350Z,14.98
2022-12-08T22:48:20.486Z,15.00
2022-12-08T22:50:48.196Z,17.25
2022-12-08T22:53:16.132Z,14.60
2022-12-08T22:55:44.210Z,17.48
2022-12-08T22:58:12.011Z,14.90
2022-12-08T23:00:40.141Z,14.65
2022-12-08T23:03:08.158Z,15.60
2022-12-08T23:05:39.647Z,16.33
2022-12-08T23:08:08.782Z,19.98
2022-12-08T23:10:37.277Z,18.42
2022-12-08T23:13:05.047Z,18.05
2022-12-08T23:15:33.241Z,18.02
2022-12-08T23:18:01.206Z,16.83
2022-12-08T23:20:29.113Z,17.67
2022-12-08T23:22:58.316Z,18.85
2022-12-08T23:25:26.028Z,16.55
2022-12-08T23:27:53.805Z,17.85
2022-12-08T23:30:21.805Z,16.95
2022-12-08T23:32:49.876Z,19.48
2022-12-08T23:35:17.615Z,19.75
2022-12-08T23:37:45.380Z,22.00
2022-12-08T23:40:14.740Z,21.80
2022-12-08T23:42:42.503Z,17.77
2022-12-08T23:45:11.028Z,19.00
2022-12-08T23:47:38.694Z,18.02
2022-12-08T23:50:08.218Z,18.27
2022-12-08T23:52:37.624Z,16.55
2022-12-08T23:55:08.367Z,19.55
2022-12-08T23:57:37.711Z,15.18
